createdAt,value
2023-03-06T00:01:05.563Z,2.31
2023-03-06T00:03:33.935Z,2.48
2023-03-06T00:06:01.816Z,2.47
2023-03-06T00:08:30.757Z,2.48
2023-03-06T00:10:59.267Z,2.36
2023-03-06T00:13:30.295Z,2.39
2023-03-06T00:16:01.177Z,2.32
2023-03-06T00:18:30.021Z,2.30
2023-03-06T00:20:57.884Z,2.32
2023-03-06T00:23:26.160Z,2.27
2023-03-06T00:25:53.915Z,2.31
2023-03-06T00:28:21.591Z,2.48
2023-03-06T00:30:50.288Z,2.52
2023-03-06T00:33:18.001Z,2.61
2023-03-06T00:35:45.768Z,2.44
2023-03-06T00:38:14.291Z,2.58
2023-03-06T00:40:42.100Z,2.62
2023-03-06T00:43:11.259Z,2.61
2023-03-06T00:45:39.034Z,2.52
2023-03-06T00:48:07.262Z,2.72
2023-03-06T00:50:35.453Z,2.61
2023-03-06T00:53:03.236Z,2.60
2023-03-06T00:55:33.658Z,2.53
2023-03-06T00:58:01.490Z,2.69
2023-03-06T01:00:29.249Z,2.72
2023-03-06T01:02:57.033Z,2.94
2023-03-06T01:05:25.694Z,2.80
2023-03-06T01:07:53.761Z,2.87
2023-03-06T01:10:22.573Z,2.86
2023-03-06T01:12:50.291Z,2.81
2023-03-06T01:15:19.040Z,2.79
2023-03-06T01:17:46.927Z,2.88
2023-03-06T01:20:25.578Z,2.83
2023-03-06T01:22:55.667Z,2.67
2023-03-06T01:25:26.199Z,2.69
2023-03-06T01:27:54.089Z,2.82
2023-03-06T01:30:22.422Z,2.76
2023-03-06T01:32:51.029Z,2.73
2023-03-06T01:35:19.732Z,2.62
2023-03-06T01:37:48.445Z,2.63
2023-03-06T01:40:17.138Z,2.67
2023-03-06T01:42:46.853Z,2.71
2023-03-06T01:45:15.413Z,2.83
2023-03-06T01:47:44.935Z,2.83
2023-03-06T01:50:14.020Z,2.60
2023-03-06T01:52:58.691Z,2.61
2023-03-06T01:55:34.795Z,2.71
2023-03-06T01:58:17.186Z,2.56
2023-03-06T02:00:46.523Z,2.66
2023-03-06T02:03:23.817Z,2.83
2023-03-06T02:05:52.677Z,2.78
2023-03-06T02:08:24.218Z,2.82
2023-03-06T02:11:19.328Z,2.89
2023-03-06T02:13:50.222Z,2.78
2023-03-06T02:16:26.084Z,2.64
2023-03-06T02:18:55.364Z,2.58
2023-03-06T02:21:41.362Z,2.68
2023-03-06T02:24:22.941Z,2.64
2023-03-06T02:26:53.674Z,2.72
2023-03-06T02:29:28.064Z,2.68
2023-03-06T02:31:56.459Z,2.40
2023-03-06T02:34:25.595Z,2.56
2023-03-06T02:37:05.813Z,2.46
2023-03-06T02:39:40.210Z,2.65
2023-03-06T02:42:21.220Z,2.71
2023-03-06T02:44:53.157Z,2.73
2023-03-06T02:47:20.906Z,2.73
2023-03-06T02:49:48.774Z,2.88
2023-03-06T02:52:16.507Z,2.67
2023-03-06T02:54:44.236Z,2.72
2023-03-06T02:57:12.336Z,2.67
2023-03-06T02:59:40.117Z,2.69
2023-03-06T03:02:07.927Z,2.58
2023-03-06T03:04:35.947Z,2.73
2023-03-06T03:07:04.588Z,2.59
2023-03-06T03:09:37.044Z,2.76
2023-03-06T03:12:08.117Z,2.73
2023-03-06T03:14:36.232Z,2.86
2023-03-06T03:17:04.960Z,2.86
2023-03-06T03:19:33.745Z,2.80
2023-03-06T03:22:01.725Z,2.78
2023-03-06T03:24:30.510Z,2.96
2023-03-06T03:26:59.328Z,2.78
2023-03-06T03:29:28.034Z,2.91
2023-03-06T03:31:55.858Z,2.99
2023-03-06T03:34:23.660Z,2.89
2023-03-06T03:36:53.305Z,2.91
2023-03-06T03:39:21.974Z,2.94
2023-03-06T03:41:51.066Z,2.92
2023-03-06T03:44:18.805Z,2.83
2023-03-06T03:46:46.559Z,3.04
2023-03-06T03:49:14.923Z,3.00
2023-03-06T03:51:43.910Z,2.99
2023-03-06T03:54:11.707Z,3.01
2023-03-06T03:56:40.882Z,2.92
2023-03-06T03:59:09.488Z,3.13
2023-03-06T04:01:39.524Z,3.10
2023-03-06T04:04:07.659Z,3.15
2023-03-06T04:06:35.421Z,3.11
2023-03-06T04:09:04.652Z,3.00
2023-03-06T04:11:33.456Z,3.06
2023-03-06T04:14:01.278Z,3.24
2023-03-06T04:16:29.089Z,3.27
2023-03-06T04:18:57.829Z,3.18
2023-03-06T04:21:25.556Z,3.08
2023-03-06T04:23:54.210Z,3.05
2023-03-06T04:26:22.029Z,3.20
2023-03-06T04:28:49.827Z,3.07
2023-03-06T04:31:17.609Z,3.03
2023-03-06T04:33:45.365Z,3.08
2023-03-06T04:36:45.201Z,3.05
2023-03-06T04:39:15.123Z,3.07
2023-03-06T04:41:43.294Z,3.18
2023-03-06T04:44:12.120Z,3.13
2023-03-06T04:46:40.790Z,3.15
2023-03-06T04:49:08.550Z,3.27
2023-03-06T04:51:37.488Z,3.39
2023-03-06T04:54:06.352Z,3.27
2023-03-06T04:56:34.785Z,3.38
2023-03-06T04:59:04.837Z,3.24
2023-03-06T05:01:33.601Z,3.36
2023-03-06T05:04:02.316Z,3.12
2023-03-06T05:06:30.971Z,3.30
2023-03-06T05:08:59.767Z,3.17
2023-03-06T05:11:28.637Z,3.10
2023-03-06T05:13:58.105Z,3.07
2023-03-06T05:16:27.586Z,3.18
2023-03-06T05:18:56.348Z,3.20
2023-03-06T05:21:25.773Z,3.15
2023-03-06T05:23:53.842Z,3.17
2023-03-06T05:26:22.589Z,3.32
2023-03-06T05:28:51.261Z,3.16
2023-03-06T05:31:19.977Z,3.06
2023-03-06T05:33:48.669Z,3.19
2023-03-06T05:36:17.387Z,3.17
2023-03-06T05:38:46.020Z,3.18
2023-03-06T05:41:15.459Z,3.13
2023-03-06T05:43:44.970Z,3.30
2023-03-06T05:46:13.739Z,3.03
2023-03-06T05:48:42.415Z,3.06
2023-03-06T05:51:12.193Z,3.34
2023-03-06T05:53:41.634Z,3.13
2023-03-06T05:56:10.411Z,3.04
2023-03-06T05:58:39.345Z,3.10
2023-03-06T06:01:18.761Z,3.13
2023-03-06T06:03:48.484Z,2.89
2023-03-06T06:06:16.551Z,3.26
2023-03-06T06:08:45.336Z,3.25
2023-03-06T06:11:15.028Z,3.33
2023-03-06T06:13:44.559Z,3.15
2023-03-06T06:16:16.980Z,3.47
2023-03-06T06:18:46.879Z,3.41
2023-03-06T06:21:16.534Z,3.43
2023-03-06T06:23:46.350Z,3.40
2023-03-06T06:26:14.999Z,3.57
2023-03-06T06:28:42.770Z,3.54
2023-03-06T06:31:13.295Z,3.60
2023-03-06T06:33:42.494Z,3.63
2023-03-06T06:36:22.147Z,3.56
2023-03-06T06:38:52.363Z,3.30
2023-03-06T06:41:46.961Z,3.58
2023-03-06T06:44:15.613Z,3.66
2023-03-06T06:49:36.220Z,3.72
2023-03-06T06:52:07.480Z,3.66
2023-03-06T06:54:36.970Z,3.80
2023-03-06T06:57:04.916Z,3.81
2023-03-06T06:59:32.724Z,3.68
2023-03-06T07:02:02.244Z,3.70
2023-03-06T07:04:30.962Z,3.86
2023-03-06T07:07:01.251Z,3.95
2023-03-06T07:09:31.074Z,3.99
2023-03-06T07:12:00.039Z,3.96
2023-03-06T07:14:28.793Z,3.87
2023-03-06T07:16:58.602Z,3.89
2023-03-06T07:19:28.141Z,3.87
2023-03-06T07:21:57.614Z,3.96
2023-03-06T07:24:28.243Z,4.21
2023-03-06T07:26:56.120Z,4.41
2023-03-06T07:29:25.575Z,4.24
2023-03-06T07:31:55.118Z,4.45
2023-03-06T07:34:23.800Z,4.30
2023-03-06T07:36:52.465Z,4.07
2023-03-06T07:39:21.998Z,4.36
2023-03-06T07:41:52.464Z,3.99
2023-03-06T07:44:22.278Z,4.18
2023-03-06T07:46:51.806Z,4.10
2023-03-06T07:49:21.388Z,4.32
2023-03-06T07:51:50.807Z,4.30
2023-03-06T07:54:20.289Z,4.52
2023-03-06T07:56:53.699Z,4.45
2023-03-06T07:59:23.153Z,4.28
2023-03-06T08:01:56.074Z,4.32
2023-03-06T08:04:25.610Z,4.34
2023-03-06T08:06:57.645Z,4.64
2023-03-06T08:09:27.302Z,4.37
2023-03-06T08:11:57.196Z,4.89
2023-03-06T08:14:26.841Z,4.91
2023-03-06T08:16:57.289Z,4.69
2023-03-06T08:19:25.007Z,4.59
2023-03-06T08:21:54.479Z,4.86
2023-03-06T08:24:23.155Z,4.35
2023-03-06T08:26:51.890Z,4.88
2023-03-06T08:29:21.385Z,4.97
2023-03-06T08:31:51.624Z,4.89
2023-03-06T08:34:25.262Z,4.85
2023-03-06T08:36:54.264Z,4.76
2023-03-06T08:39:23.843Z,4.26
2023-03-06T08:41:53.315Z,4.51
2023-03-06T08:44:22.737Z,4.85
2023-03-06T08:46:50.559Z,5.22
2023-03-06T08:49:19.557Z,5.49
2023-03-06T08:51:48.300Z,5.84
2023-03-06T08:54:17.012Z,5.81
2023-03-06T08:56:45.716Z,5.50
2023-03-06T08:59:14.777Z,5.48
2023-03-06T09:01:42.652Z,5.97
2023-03-06T09:04:12.294Z,5.86
2023-03-06T09:06:43.159Z,5.81
2023-03-06T09:09:13.047Z,6.04
2023-03-06T09:11:41.738Z,5.88
2023-03-06T09:14:10.419Z,6.24
2023-03-06T09:16:39.425Z,5.91
2023-03-06T09:19:07.360Z,6.02
2023-03-06T09:21:35.058Z,5.67
2023-03-06T09:24:07.192Z,5.91
2023-03-06T09:26:45.378Z,6.69
2023-03-06T09:29:16.616Z,6.91
2023-03-06T09:31:46.396Z,6.57
2023-03-06T09:34:15.319Z,6.58
2023-03-06T09:36:55.950Z,6.80
2023-03-06T09:39:24.991Z,7.49
2023-03-06T09:41:57.700Z,7.15
2023-03-06T09:44:34.017Z,7.38
2023-03-06T09:47:38.797Z,7.61
2023-03-06T09:50:28.781Z,7.54
2023-03-06T09:53:33.078Z,7.75
2023-03-06T09:56:33.567Z,7.70
2023-03-06T09:59:25.142Z,7.51
2023-03-06T10:02:34.381Z,7.88
2023-03-06T10:05:09.484Z,8.29
2023-03-06T10:08:36.759Z,7.63
2023-03-06T10:11:11.288Z,8.05
2023-03-06T10:14:18.998Z,7.75
2023-03-06T10:16:47.868Z,8.43
2023-03-06T10:19:20.772Z,8.60
2023-03-06T10:22:21.733Z,8.66
2023-03-06T10:25:10.412Z,8.51
2023-03-06T10:27:57.904Z,9.01
2023-03-06T10:30:48.597Z,8.76
2023-03-06T10:33:47.901Z,8.26
2023-03-06T10:36:21.329Z,8.53
2023-03-06T10:38:50.521Z,9.53
2023-03-06T10:41:31.809Z,8.86
2023-03-06T10:44:01.162Z,8.42
2023-03-06T10:46:42.592Z,8.36
2023-03-06T10:49:35.684Z,8.57
2023-03-06T10:52:10.382Z,9.08
2023-03-06T10:54:43.870Z,9.12
2023-03-06T10:57:32.253Z,8.96
2023-03-06T11:00:08.712Z,8.69
2023-03-06T11:02:41.266Z,8.63
2023-03-06T11:05:21.572Z,9.33
2023-03-06T11:08:00.364Z,8.56
2023-03-06T11:10:32.030Z,8.36
2023-03-06T11:13:23.838Z,8.33
2023-03-06T11:16:30.772Z,8.24
2023-03-06T11:19:05.687Z,8.06
2023-03-06T11:21:40.559Z,7.90
2023-03-06T11:24:20.978Z,8.28
2023-03-06T11:27:02.274Z,8.35
2023-03-06T11:29:46.093Z,8.24
2023-03-06T11:32:24.367Z,7.98
2023-03-06T11:35:21.694Z,8.47
2023-03-06T11:38:14.601Z,7.99
2023-03-06T11:40:56.106Z,8.08
2023-03-06T11:44:17.548Z,8.04
2023-03-06T11:47:15.883Z,8.06
2023-03-06T11:50:06.491Z,7.37
2023-03-06T11:52:57.758Z,8.03
2023-03-06T11:55:48.614Z,8.11
2023-03-06T11:59:07.860Z,7.67
2023-03-06T12:02:16.480Z,7.96
2023-03-06T12:05:53.410Z,8.22
2023-03-06T12:08:47.075Z,8.19
2023-03-06T12:11:43.814Z,8.45
2023-03-06T12:14:30.952Z,8.25
2023-03-06T12:17:31.014Z,8.13
2023-03-06T12:20:22.423Z,8.05
2023-03-06T12:23:14.630Z,8.02
2023-03-06T12:26:40.486Z,8.32
2023-03-06T12:30:00.232Z,7.69
2023-03-06T12:32:41.750Z,8.09
2023-03-06T12:35:47.193Z,8.25
2023-03-06T12:39:04.304Z,8.04
2023-03-06T12:42:04.935Z,8.30
2023-03-06T12:45:10.138Z,8.32
2023-03-06T12:47:46.755Z,7.96
2023-03-06T12:50:38.431Z,8.07
2023-03-06T12:53:21.238Z,7.99
2023-03-06T12:55:52.374Z,8.00
2023-03-06T12:58:56.289Z,7.95
2023-03-06T13:02:05.456Z,8.15
2023-03-06T13:05:13.589Z,7.80
2023-03-06T13:08:46.038Z,7.64
2023-03-06T13:11:49.792Z,7.70
2023-03-06T13:14:28.324Z,7.23
2023-03-06T13:17:35.489Z,7.83
2023-03-06T13:20:14.947Z,7.46
2023-03-06T13:22:47.344Z,7.81
2023-03-06T13:25:19.931Z,7.63
2023-03-06T13:27:54.739Z,7.66
2023-03-06T13:30:45.326Z,7.39
2023-03-06T13:33:30.226Z,7.57
2023-03-06T13:36:24.274Z,7.57
2023-03-06T13:38:55.179Z,7.69
2023-03-06T13:41:26.217Z,7.69
2023-03-06T13:44:00.301Z,7.55
2023-03-06T13:46:40.214Z,7.53
2023-03-06T13:49:09.639Z,7.70
2023-03-06T13:52:23.444Z,7.84
2023-03-06T13:55:42.332Z,7.84
2023-03-06T13:58:24.588Z,7.62
2023-03-06T14:01:46.858Z,7.93
2023-03-06T14:04:29.140Z,7.90
2023-03-06T14:07:09.589Z,8.12
2023-03-06T14:09:46.951Z,7.79
2023-03-06T14:12:31.677Z,7.53
2023-03-06T14:15:21.430Z,8.07
2023-03-06T14:18:23.841Z,8.04
2023-03-06T14:21:05.790Z,8.01
2023-03-06T14:23:43.665Z,7.83
2023-03-06T14:26:27.748Z,7.54
2023-03-06T14:29:00.632Z,7.87
2023-03-06T14:31:34.623Z,7.86
2023-03-06T14:34:21.229Z,7.61
2023-03-06T14:37:02.173Z,7.62
2023-03-06T14:39:44.274Z,7.67
2023-03-06T14:42:29.903Z,7.68
2023-03-06T14:45:25.202Z,7.30
2023-03-06T14:47:54.213Z,7.47
2023-03-06T14:50:31.236Z,7.49
2023-03-06T14:53:14.342Z,7.39
2023-03-06T14:55:59.109Z,7.52
2023-03-06T14:58:38.710Z,7.35
2023-03-06T15:01:11.204Z,7.52
2023-03-06T15:03:52.390Z,7.36
2023-03-06T15:06:25.971Z,7.52
2023-03-06T15:09:34.705Z,7.67
2023-03-06T15:12:33.987Z,7.29
2023-03-06T15:15:19.058Z,7.10
2023-03-06T15:17:48.567Z,6.98
2023-03-06T15:20:43.908Z,6.92
2023-03-06T15:23:42.426Z,6.93
2023-03-06T15:26:36.984Z,6.87
2023-03-06T15:29:10.347Z,7.15
2023-03-06T15:31:49.589Z,7.09
2023-03-06T15:34:23.929Z,7.14
2023-03-06T15:36:58.527Z,6.90
2023-03-06T15:39:38.075Z,6.56
2023-03-06T15:42:23.606Z,6.79
2023-03-06T15:45:00.164Z,6.70
2023-03-06T15:47:30.639Z,6.80
2023-03-06T15:49:59.387Z,6.73
2023-03-06T15:52:29.036Z,6.78
2023-03-06T15:54:58.584Z,6.50
2023-03-06T15:57:29.525Z,6.39
2023-03-06T16:00:00.984Z,6.31
2023-03-06T16:02:30.501Z,6.29
2023-03-06T16:05:02.597Z,6.27
2023-03-06T16:07:32.156Z,6.13
2023-03-06T16:10:01.723Z,6.14
2023-03-06T16:12:31.828Z,6.19
2023-03-06T16:15:03.154Z,5.83
2023-03-06T16:17:32.737Z,5.68
2023-03-06T16:20:01.332Z,5.34
2023-03-06T16:22:30.772Z,5.31
2023-03-06T16:25:00.346Z,5.43
2023-03-06T16:27:30.016Z,5.54
2023-03-06T16:29:59.548Z,5.37
2023-03-06T16:32:29.168Z,5.48
2023-03-06T16:34:57.973Z,5.45
2023-03-06T16:37:27.700Z,5.37
2023-03-06T16:39:57.115Z,5.43
2023-03-06T16:42:26.722Z,5.42
2023-03-06T16:44:55.457Z,5.13
2023-03-06T16:47:25.946Z,5.12
2023-03-06T16:49:58.183Z,5.18
2023-03-06T16:52:28.283Z,5.19
2023-03-06T16:54:57.035Z,5.16
2023-03-06T16:57:31.605Z,5.12
2023-03-06T17:00:01.198Z,5.14
2023-03-06T17:02:29.942Z,4.85
2023-03-06T17:04:58.999Z,4.95
2023-03-06T17:07:29.670Z,5.01
2023-03-06T17:09:59.350Z,4.83
2023-03-06T17:12:28.844Z,4.76
2023-03-06T17:14:57.646Z,4.71
2023-03-06T17:17:26.321Z,4.68
2023-03-06T17:19:55.819Z,4.82
2023-03-06T17:22:24.858Z,4.68
2023-03-06T17:24:55.034Z,4.55
2023-03-06T17:27:24.546Z,4.73
2023-03-06T17:29:57.810Z,4.94
2023-03-06T17:32:28.958Z,4.62
2023-03-06T17:34:58.855Z,4.74
2023-03-06T17:37:28.692Z,4.86
2023-03-06T17:39:57.436Z,4.69
2023-03-06T17:42:26.975Z,4.81
2023-03-06T17:44:57.492Z,4.94
2023-03-06T17:47:28.037Z,4.97
2023-03-06T17:49:57.568Z,4.77
2023-03-06T17:52:29.642Z,4.93
2023-03-06T17:54:59.083Z,4.53
2023-03-06T17:57:27.772Z,4.45
2023-03-06T17:59:56.518Z,4.65
2023-03-06T18:02:26.062Z,4.53
2023-03-06T18:04:58.301Z,4.56
2023-03-06T18:07:27.816Z,4.50
2023-03-06T18:09:57.415Z,4.68
2023-03-06T18:12:27.059Z,4.52
2023-03-06T18:14:56.849Z,4.61
2023-03-06T18:17:26.535Z,4.35
2023-03-06T18:19:56.880Z,4.31
2023-03-06T18:22:26.328Z,4.35
2023-03-06T18:24:56.138Z,4.25
2023-03-06T18:27:25.658Z,4.27
2023-03-06T18:29:55.748Z,4.22
2023-03-06T18:32:24.467Z,4.21
2023-03-06T18:34:55.190Z,4.18
2023-03-06T18:37:25.089Z,4.22
2023-03-06T18:39:55.018Z,4.19
2023-03-06T18:42:24.825Z,4.23
2023-03-06T18:44:53.547Z,4.29
2023-03-06T18:47:22.997Z,4.14
2023-03-06T18:49:51.648Z,4.02
2023-03-06T18:52:20.524Z,4.08
2023-03-06T18:54:52.327Z,4.11
2023-03-06T18:57:21.148Z,4.05
2023-03-06T18:59:49.040Z,4.06
2023-03-06T19:02:17.840Z,4.03
2023-03-06T19:04:47.478Z,4.06
2023-03-06T19:07:15.243Z,3.92
2023-03-06T19:09:44.757Z,3.96
2023-03-06T19:12:13.482Z,4.01
2023-03-06T19:14:44.378Z,4.09
2023-03-06T19:17:13.892Z,3.97
2023-03-06T19:19:42.535Z,3.87
2023-03-06T19:22:11.305Z,3.83
2023-03-06T19:24:40.772Z,3.53
2023-03-06T19:27:11.592Z,3.85
2023-03-06T19:29:42.059Z,3.68
2023-03-06T19:32:11.654Z,4.00
2023-03-06T19:34:40.422Z,4.17
2023-03-06T19:37:09.994Z,4.19
2023-03-06T19:39:39.587Z,4.29
2023-03-06T19:42:07.492Z,4.18
2023-03-06T19:44:37.946Z,4.28
2023-03-06T19:47:07.632Z,4.15
2023-03-06T19:49:38.862Z,4.28
2023-03-06T19:52:08.349Z,4.20
2023-03-06T19:54:38.046Z,4.31
2023-03-06T19:57:07.923Z,4.25
2023-03-06T19:59:37.433Z,4.05
2023-03-06T20:02:07.356Z,3.90
2023-03-06T20:04:37.172Z,4.07
2023-03-06T20:07:06.966Z,3.95
2023-03-06T20:09:36.568Z,3.86
2023-03-06T20:12:08.264Z,3.84
2023-03-06T20:14:37.956Z,4.00
2023-03-06T20:17:08.134Z,3.97
2023-03-06T20:19:37.837Z,3.89
2023-03-06T20:22:07.503Z,3.70
2023-03-06T20:24:37.063Z,3.78
2023-03-06T20:27:06.685Z,3.62
2023-03-06T20:29:36.301Z,3.88
2023-03-06T20:32:06.193Z,3.76
2023-03-06T20:34:39.144Z,3.65
2023-03-06T20:37:11.982Z,3.52
2023-03-06T20:39:41.640Z,3.46
2023-03-06T20:42:11.465Z,3.27
2023-03-06T20:44:41.400Z,3.10
2023-03-06T20:47:11.008Z,3.19
2023-03-06T20:49:40.624Z,3.33
2023-03-06T20:52:10.182Z,3.52
2023-03-06T20:54:39.990Z,3.45
2023-03-06T20:57:09.544Z,3.23
2023-03-06T20:59:39.188Z,3.22
2023-03-06T21:02:09.817Z,3.42
2023-03-06T21:04:41.160Z,3.40
2023-03-06T21:07:10.812Z,3.49
2023-03-06T21:09:40.351Z,3.60
2023-03-06T21:12:09.864Z,3.27
2023-03-06T21:14:39.390Z,3.41
2023-03-06T21:17:08.872Z,3.41
2023-03-06T21:19:38.386Z,3.66
2023-03-06T21:22:07.591Z,3.51
2023-03-06T21:24:37.436Z,3.32
2023-03-06T21:27:06.972Z,3.29
2023-03-06T21:29:36.616Z,3.28
2023-03-06T21:32:06.534Z,3.29
2023-03-06T21:34:36.166Z,3.28
2023-03-06T21:37:05.687Z,3.46
2023-03-06T21:39:35.481Z,3.40
2023-03-06T21:42:05.823Z,3.46
2023-03-06T21:44:35.352Z,3.03
2023-03-06T21:47:05.220Z,3.14
2023-03-06T21:49:34.881Z,3.19
2023-03-06T21:52:04.932Z,3.12
2023-03-06T21:54:35.431Z,3.27
2023-03-06T21:57:05.338Z,3.24
2023-03-06T21:59:34.939Z,3.06
2023-03-06T22:02:04.693Z,3.22
2023-03-06T22:04:34.418Z,3.16
2023-03-06T22:07:04.100Z,3.11
2023-03-06T22:09:35.877Z,3.21
2023-03-06T22:12:06.078Z,3.14
2023-03-06T22:14:35.708Z,2.93
2023-03-06T22:17:05.446Z,2.93
2023-03-06T22:19:35.336Z,2.64
2023-03-06T22:22:05.552Z,2.61
2023-03-06T22:24:35.220Z,2.64
2023-03-06T22:27:05.170Z,2.46
2023-03-06T22:29:34.852Z,2.75
2023-03-06T22:32:04.656Z,2.54
2023-03-06T22:34:34.509Z,2.49
2023-03-06T22:37:04.273Z,2.59
2023-03-06T22:39:33.753Z,2.52
2023-03-06T22:42:03.545Z,2.56
2023-03-06T22:44:33.013Z,2.25
2023-03-06T22:47:02.504Z,2.26
2023-03-06T22:49:32.691Z,2.19
2023-03-06T22:52:02.179Z,2.23
2023-03-06T22:54:31.077Z,2.42
2023-03-06T22:56:59.776Z,2.31
2023-03-06T22:59:28.536Z,2.23
2023-03-06T23:01:57.201Z,2.30
2023-03-06T23:04:26.027Z,2.39
2023-03-06T23:06:55.894Z,2.57
2023-03-06T23:09:25.291Z,2.59
2023-03-06T23:11:53.982Z,2.59
2023-03-06T23:14:22.702Z,2.36
2023-03-06T23:16:51.880Z,2.55
2023-03-06T23:19:21.335Z,2.34
2023-03-06T23:21:50.842Z,2.56
2023-03-06T23:24:20.344Z,2.60
2023-03-06T23:26:49.374Z,2.72
2023-03-06T23:29:18.816Z,2.83
2023-03-06T23:31:48.348Z,2.80
2023-03-06T23:34:17.919Z,2.80
2023-03-06T23:36:47.461Z,2.51
2023-03-06T23:39:16.919Z,2.45
2023-03-06T23:41:46.400Z,2.56
2023-03-06T23:44:15.933Z,2.39
2023-03-06T23:46:45.462Z,2.49
2023-03-06T23:49:15.201Z,2.26
2023-03-06T23:51:44.756Z,2.33
2023-03-06T23:54:12.523Z,2.25
2023-03-06T23:56:42.052Z,2.14
2023-03-06T23:59:13.056Z,2.05
